Zürich Airport LSZH

Flugplatz Daten

Name: Zürich Airport

Ident: LSZH

Lat: 47,46469879

Long: 8,54916954

Platzhöhe: 1416 ft

IataCode: ZRH

City: Zurich

Metar

2022/08/10 20:20
LSZH 102020Z 04004KT CAVOK 22/08 Q1021 NOSIG

Taf

2022/08/10 18:33
TAF LSZH 101725Z 1018/1124 06008KT CAVOK TX29/1115Z TN13/1104Z
BECMG 1018/1020 05005KT
BECMG 1021/1023 34004KT
BECMG 1106/1109 06008KT PROB30
TEMPO 1112/1116 06012KT
BECMG 1116/1119 05005KT
Gewünschte Webcam nicht vorhanden? Dann fügen Sie eine hinzu. Sie wird dann so schnell wie möglich freigeschaltet
Url: Title: